SCMA weather

Puerto Marín Balmaceda Airport
Puerto Marin Balmaceda, Aysén Region, Chile

Public forecast

Using degrees Celsius for public forecast. Weather courtesy of forecast.io.

Closest aviation weather report (METAR) to Puerto Marín Balmaceda Airport

Closest report is Melinka Airport, 34.8 nm (64.4 km) W. Retrieved 2020/07/16 01:00 UTC (25 minutes ago):

SCMK 160100Z AUTO 05014KT //// // OVC004/// ///// Q////

Closest aviation forecast (TAF) to Puerto Marín Balmaceda Airport

Forecast is more than 12 hours old.

Closest forecast is Chaitén Airport, 52.4 nm (97.1 km) NNE. Retrieved 2018/09/16 12:33 UTC (2 years ago):

TAF SPJL 161124Z 1612/1712 VRB04KT 9999 FEW020LVA0551 161131 GG KWBCYMYX MPZZMAMX 161130 SCSCYZYX SPCH03 SCTN 161130 SPECI SCTN 161130Z 36020G31KT +RA SCT013 OVC017 11/09 Q1009